Time;durP1;ratioP1;P1;durP2;ratioP2;P2;SDS_P1;SDS_P2;PMS_P1;PMS_P2;Temp;Humidity;BMP_temperature;BMP_pressure;BME280_temperature;BME280_humidity;BME280_pressure;Samples;Min_cycle;Max_cycle;Signal;HPM_P1;HPM_P2
2022/07/13 00:01:11;;;;;;;2.78;2.33;;;20.50;99.90;;;;;;5075625;28;20123;-58
2022/07/13 00:03:37;;;;;;;3.00;2.42;;;20.50;99.90;;;;;;5074499;28;20119;-58
2022/07/13 00:06:03;;;;;;;3.45;2.35;;;20.50;99.90;;;;;;5075822;28;20363;-57
2022/07/13 00:08:28;;;;;;;3.20;2.70;;;20.60;99.90;;;;;;5075671;28;20041;-58
2022/07/13 00:10:54;;;;;;;3.10;2.30;;;20.50;99.90;;;;;;5075846;28;20495;-57
2022/07/13 00:13:20;;;;;;;3.55;2.47;;;20.50;99.90;;;;;;5075600;28;20094;-57
2022/07/13 00:15:45;;;;;;;3.17;2.60;;;20.50;99.90;;;;;;5075411;28;20127;-57
2022/07/13 00:18:11;;;;;;;4.18;2.33;;;20.50;99.90;;;;;;5075298;28;20059;-57
2022/07/13 00:20:37;;;;;;;5.80;2.42;;;20.50;99.90;;;;;;5075338;28;20043;-57
2022/07/13 00:23:03;;;;;;;4.13;2.50;;;20.40;99.90;;;;;;5075041;28;20455;-57
2022/07/13 00:25:29;;;;;;;3.83;2.63;;;20.40;99.90;;;;;;5075491;28;20036;-57
2022/07/13 00:27:54;;;;;;;3.47;3.15;;;20.40;99.90;;;;;;5075294;28;20102;-57
2022/07/13 00:30:20;;;;;;;4.50;3.00;;;20.30;99.90;;;;;;5075528;28;20067;-57
2022/07/13 00:32:46;;;;;;;6.70;3.17;;;20.30;99.90;;;;;;5075181;28;20431;-57
2022/07/13 00:35:12;;;;;;;3.63;3.00;;;20.30;99.90;;;;;;5073797;28;20049;-57
2022/07/13 00:37:37;;;;;;;6.45;2.97;;;20.40;99.90;;;;;;5075326;28;20043;-57
2022/07/13 00:40:03;;;;;;;4.55;3.30;;;20.30;99.90;;;;;;5075310;28;20101;-58
2022/07/13 00:42:29;;;;;;;3.47;3.17;;;20.40;99.90;;;;;;5074815;28;20547;-58
2022/07/13 00:44:54;;;;;;;4.22;3.20;;;20.30;99.90;;;;;;5074727;28;20033;-58
2022/07/13 00:47:20;;;;;;;5.80;3.13;;;20.40;99.90;;;;;;5074757;28;20036;-58
2022/07/13 00:49:46;;;;;;;5.53;3.25;;;20.30;99.90;;;;;;5074985;28;20044;-57
2022/07/13 00:52:12;;;;;;;6.70;3.25;;;20.20;99.90;;;;;;5074834;28;20071;-57
2022/07/13 00:54:43;;;;;;;4.28;2.95;;;20.30;99.90;;;;;;5074818;28;20040;-57
2022/07/13 00:57:14;;;;;;;3.30;3.00;;;20.40;99.90;;;;;;5074819;28;20047;-57
2022/07/13 00:59:39;;;;;;;3.90;3.20;;;20.40;99.90;;;;;;5074651;28;20093;-56
2022/07/13 01:02:05;;;;;;;17.05;3.55;;;20.30;99.90;;;;;;5074429;28;20045;-58
2022/07/13 01:04:31;;;;;;;3.53;3.22;;;20.30;99.90;;;;;;5074821;28;20075;-58
2022/07/13 01:06:57;;;;;;;7.28;3.15;;;20.30;99.90;;;;;;5073689;28;20075;-59
2022/07/13 01:09:23;;;;;;;10.23;3.72;;;20.30;99.90;;;;;;5074680;28;20040;-57
2022/07/13 01:11:51;;;;;;;4.13;3.35;;;20.30;99.90;;;;;;5074471;28;20044;-58
2022/07/13 01:14:17;;;;;;;4.55;3.47;;;20.30;99.90;;;;;;5074542;28;20379;-58
2022/07/13 01:16:43;;;;;;;5.47;4.00;;;20.30;99.90;;;;;;5074313;28;20047;-57
2022/07/13 01:19:11;;;;;;;4.05;3.75;;;20.40;99.90;;;;;;5074393;28;20094;-56
2022/07/13 01:21:41;;;;;;;5.95;3.30;;;20.40;99.90;;;;;;5074111;28;20037;-57
2022/07/13 01:24:07;;;;;;;4.97;4.53;;;20.40;99.90;;;;;;5074262;28;20126;-57
2022/07/13 01:26:33;;;;;;;9.30;4.75;;;20.40;99.90;;;;;;5074349;28;20437;-57
2022/07/13 01:28:59;;;;;;;7.47;4.78;;;20.40;99.90;;;;;;5074458;28;20039;-56
2022/07/13 01:31:45;;;;;;;7.32;4.55;;;20.40;99.90;;;;;;5074411;28;20367;-57
2022/07/13 01:34:10;;;;;;;5.45;4.95;;;20.40;99.90;;;;;;5074081;28;20131;-56
2022/07/13 01:36:37;;;;;;;5.25;4.47;;;20.40;99.90;;;;;;5074158;28;20431;-56
2022/07/13 01:39:03;;;;;;;5.15;4.53;;;20.40;99.90;;;;;;5073855;28;20040;-57
2022/07/13 01:41:29;;;;;;;7.60;5.05;;;20.40;99.90;;;;;;5073653;28;20036;-58
2022/07/13 01:43:57;;;;;;;5.95;5.38;;;20.40;99.90;;;;;;5073931;28;20086;-57
2022/07/13 01:46:26;;;;;;;7.15;5.25;;;20.40;99.90;;;;;;5072656;28;20471;-57
2022/07/13 01:48:54;;;;;;;6.75;5.63;;;20.40;99.90;;;;;;5073797;28;20101;-57
2022/07/13 01:51:20;;;;;;;5.90;5.40;;;20.40;99.90;;;;;;5073579;28;20040;-56
2022/07/13 01:53:46;;;;;;;6.80;5.47;;;20.40;99.90;;;;;;5073604;28;20047;-57
2022/07/13 01:56:12;;;;;;;6.00;5.40;;;20.30;99.90;;;;;;5073564;28;20043;-57
2022/07/13 01:58:37;;;;;;;5.63;5.05;;;20.30;99.90;;;;;;5073777;28;20044;-58
2022/07/13 02:01:03;;;;;;;8.60;5.78;;;20.30;99.90;;;;;;5073539;28;20060;-58
2022/07/13 02:03:32;;;;;;;8.40;5.75;;;20.30;99.90;;;;;;5073410;28;20039;-57
2022/07/13 02:05:58;;;;;;;7.10;6.13;;;20.30;99.90;;;;;;5073448;28;20037;-58
2022/07/13 02:08:27;;;;;;;5.70;5.20;;;20.30;99.90;;;;;;5073335;28;20487;-58
2022/07/13 02:10:53;;;;;;;9.25;5.97;;;20.30;99.90;;;;;;5073448;28;20467;-58
2022/07/13 02:13:19;;;;;;;8.95;6.68;;;20.20;99.90;;;;;;5073315;28;20047;-57
2022/07/13 02:15:45;;;;;;;9.68;6.32;;;20.30;99.90;;;;;;5072935;28;20600;-57
2022/07/13 02:18:10;;;;;;;8.55;6.38;;;20.30;99.90;;;;;;5073066;28;20119;-57
2022/07/13 02:20:37;;;;;;;10.82;6.53;;;20.30;99.90;;;;;;5071924;28;20108;-57
2022/07/13 02:23:03;;;;;;;9.10;7.15;;;20.30;99.90;;;;;;5072914;28;20449;-58
2022/07/13 02:25:29;;;;;;;7.28;6.57;;;20.30;99.90;;;;;;5073124;28;20512;-57
2022/07/13 02:27:54;;;;;;;7.15;6.47;;;20.30;99.90;;;;;;5073112;28;20036;-57
2022/07/13 02:30:20;;;;;;;6.30;5.70;;;20.30;99.90;;;;;;5073083;28;20075;-57
2022/07/13 02:32:47;;;;;;;7.32;6.55;;;20.30;99.90;;;;;;5073012;28;20107;-57
2022/07/13 02:35:14;;;;;;;7.13;5.80;;;20.30;99.90;;;;;;5071584;28;20077;-57
2022/07/13 02:37:40;;;;;;;7.97;5.47;;;20.30;99.90;;;;;;5072644;28;20119;-57
2022/07/13 02:40:08;;;;;;;5.97;5.38;;;20.20;99.90;;;;;;5072822;28;20489;-57
2022/07/13 02:42:34;;;;;;;6.53;4.93;;;20.30;99.90;;;;;;5072880;28;20050;-57
2022/07/13 02:45:00;;;;;;;6.45;5.18;;;20.30;99.90;;;;;;5072702;28;20449;-57
2022/07/13 02:47:25;;;;;;;6.38;5.75;;;20.30;99.90;;;;;;5072479;28;20442;-57
2022/07/13 02:49:51;;;;;;;6.22;5.63;;;20.30;99.90;;;;;;5072420;28;20079;-58
2022/07/13 02:52:17;;;;;;;6.15;5.55;;;20.20;99.90;;;;;;5072393;28;20123;-57
2022/07/13 02:54:43;;;;;;;6.05;5.45;;;20.30;99.90;;;;;;5072529;28;20079;-57
2022/07/13 02:57:09;;;;;;;6.93;5.80;;;20.30;99.90;;;;;;5072573;28;20036;-56
2022/07/13 02:59:36;;;;;;;6.85;5.25;;;20.30;99.90;;;;;;5072402;28;20376;-58
2022/07/13 03:02:03;;;;;;;6.63;5.68;;;20.30;99.90;;;;;;5071062;28;20062;-57
2022/07/13 03:04:29;;;;;;;9.25;5.63;;;20.30;99.90;;;;;;5071164;28;20119;-56
2022/07/13 03:06:55;;;;;;;8.13;6.15;;;20.30;99.90;;;;;;5072136;28;20120;-58
2022/07/13 03:09:21;;;;;;;6.30;5.70;;;20.30;99.90;;;;;;5072049;28;20037;-57
2022/07/13 03:11:46;;;;;;;8.63;6.10;;;20.30;99.90;;;;;;5072502;28;20044;-57
2022/07/13 03:14:12;;;;;;;7.28;6.57;;;20.30;99.90;;;;;;5071158;28;20059;-57
2022/07/13 03:16:38;;;;;;;9.27;6.35;;;20.40;99.90;;;;;;5072509;28;20040;-56
2022/07/13 03:19:03;;;;;;;8.98;6.22;;;20.40;99.90;;;;;;5072099;28;20040;-57
2022/07/13 03:21:29;;;;;;;7.65;6.60;;;20.40;99.90;;;;;;5072074;28;20048;-57
2022/07/13 03:23:56;;;;;;;10.70;6.13;;;20.40;99.90;;;;;;5072327;28;20456;-57
2022/07/13 03:26:22;;;;;;;8.23;6.30;;;20.40;99.90;;;;;;5072324;28;20068;-58
2022/07/13 03:28:48;;;;;;;6.93;5.88;;;20.30;99.90;;;;;;5071537;28;20048;-57
2022/07/13 03:31:13;;;;;;;6.20;5.60;;;20.40;99.90;;;;;;5071986;28;20032;-57
2022/07/13 03:33:39;;;;;;;7.22;5.90;;;20.40;99.90;;;;;;5071986;28;20119;-57
2022/07/13 03:36:05;;;;;;;9.25;6.57;;;20.30;99.90;;;;;;5071879;28;20033;-57
2022/07/13 03:38:31;;;;;;;6.07;5.57;;;20.30;99.90;;;;;;5072185;28;20028;-57
2022/07/13 03:40:57;;;;;;;6.10;5.35;;;20.30;99.90;;;;;;5070599;28;20399;-58
2022/07/13 03:43:22;;;;;;;9.68;5.72;;;20.20;99.90;;;;;;5071895;28;20072;-58
2022/07/13 03:45:48;;;;;;;6.28;5.68;;;20.20;99.90;;;;;;5069995;28;20135;-58
2022/07/13 03:48:16;;;;;;;9.40;5.78;;;20.30;99.90;;;;;;5071743;28;20068;-58
2022/07/13 03:50:43;;;;;;;6.53;5.88;;;20.30;99.90;;;;;;5071727;28;20044;-58
2022/07/13 03:53:08;;;;;;;7.35;5.70;;;20.30;99.90;;;;;;5072055;28;20032;-58
2022/07/13 03:55:34;;;;;;;8.00;5.78;;;20.30;99.90;;;;;;5072064;28;20114;-58
2022/07/13 03:58:00;;;;;;;6.88;6.18;;;20.20;99.90;;;;;;5071877;28;20111;-58
2022/07/13 04:00:25;;;;;;;6.70;6.07;;;20.30;99.90;;;;;;5072189;28;20089;-58
2022/07/13 04:02:51;;;;;;;7.40;5.88;;;20.30;99.90;;;;;;5071724;28;20029;-58
2022/07/13 04:05:17;;;;;;;6.75;6.07;;;20.30;99.90;;;;;;5071518;28;20542;-58
2022/07/13 04:07:42;;;;;;;7.80;6.88;;;20.30;99.90;;;;;;5071836;28;20040;-58
2022/07/13 04:10:08;;;;;;;7.10;6.05;;;20.20;99.90;;;;;;5070840;28;20056;-58
2022/07/13 04:12:34;;;;;;;6.40;5.63;;;20.20;99.90;;;;;;5071828;28;20546;-58
2022/07/13 04:15:00;;;;;;;6.13;5.57;;;20.20;99.90;;;;;;5071559;28;20094;-58
2022/07/13 04:17:25;;;;;;;6.05;5.32;;;20.20;99.90;;;;;;5071704;28;20039;-58
2022/07/13 04:19:51;;;;;;;10.90;6.00;;;20.20;99.90;;;;;;5071300;28;20123;-58
2022/07/13 04:22:16;;;;;;;6.72;5.40;;;20.20;99.90;;;;;;5071368;28;20479;-58
2022/07/13 04:24:42;;;;;;;10.38;6.13;;;20.30;99.90;;;;;;5071771;28;20072;-58
2022/07/13 04:27:08;;;;;;;6.93;6.32;;;20.30;99.90;;;;;;5071596;28;20040;-58
2022/07/13 04:29:33;;;;;;;6.40;5.55;;;20.30;99.90;;;;;;5070010;28;20044;-58
2022/07/13 04:31:59;;;;;;;7.07;6.03;;;20.30;99.90;;;;;;5071622;28;20487;-58
2022/07/13 04:34:25;;;;;;;8.07;5.53;;;20.30;99.90;;;;;;5071629;28;20042;-58
2022/07/13 04:36:51;;;;;;;6.03;5.43;;;20.30;99.90;;;;;;5071497;28;20075;-58
2022/07/13 04:39:17;;;;;;;6.57;5.97;;;20.30;99.90;;;;;;5071458;28;20044;-58
2022/07/13 04:41:43;;;;;;;7.65;6.18;;;20.30;99.90;;;;;;5071595;28;20395;-57
2022/07/13 04:44:09;;;;;;;5.13;4.63;;;20.30;99.90;;;;;;5072776;28;20032;-57
2022/07/13 04:46:34;;;;;;;11.63;5.82;;;20.30;99.90;;;;;;5074641;28;20040;-58
2022/07/13 04:49:00;;;;;;;7.90;5.50;;;20.40;99.90;;;;;;5074689;28;20501;-56
2022/07/13 04:51:26;;;;;;;9.23;6.13;;;20.40;99.90;;;;;;5074970;28;20437;-57
2022/07/13 04:53:51;;;;;;;6.85;5.68;;;20.40;99.90;;;;;;5073820;28;20564;-57
2022/07/13 04:56:17;;;;;;;5.95;5.15;;;20.40;99.90;;;;;;5074718;28;20483;-57
2022/07/13 04:58:43;;;;;;;7.88;5.72;;;20.40;99.90;;;;;;5074482;28;20043;-56
2022/07/13 05:01:08;;;;;;;8.82;5.57;;;20.50;99.90;;;;;;5074607;28;20041;-58
2022/07/13 05:03:34;;;;;;;6.75;6.07;;;20.40;99.90;;;;;;5073236;28;20506;-57
2022/07/13 05:06:00;;;;;;;8.60;6.05;;;20.40;99.90;;;;;;5074625;28;20039;-58
2022/07/13 05:08:26;;;;;;;6.68;5.57;;;20.50;99.90;;;;;;5074609;28;20033;-57
2022/07/13 05:10:53;;;;;;;5.53;5.03;;;20.40;99.90;;;;;;5072676;28;20105;-57
2022/07/13 05:13:19;;;;;;;8.48;6.05;;;20.50;99.90;;;;;;5074227;28;20043;-56
2022/07/13 05:15:45;;;;;;;5.90;5.40;;;20.40;99.90;;;;;;5074445;28;20044;-57
2022/07/13 05:18:12;;;;;;;8.23;6.10;;;20.40;99.90;;;;;;5074220;28;20046;-58
2022/07/13 05:20:38;;;;;;;5.43;4.90;;;20.40;99.90;;;;;;5074443;28;20044;-57
2022/07/13 05:23:04;;;;;;;7.35;5.93;;;20.40;99.90;;;;;;5074030;28;20056;-57
2022/07/13 05:25:29;;;;;;;7.18;6.45;;;20.40;99.90;;;;;;5074313;28;20040;-58
2022/07/13 05:27:55;;;;;;;7.97;5.90;;;20.40;99.90;;;;;;5074134;28;20059;-56
2022/07/13 05:30:21;;;;;;;8.93;6.45;;;20.40;99.90;;;;;;5073980;28;20364;-58
2022/07/13 05:32:47;;;;;;;7.53;6.80;;;20.40;99.90;;;;;;5074064;28;20068;-56
2022/07/13 05:35:13;;;;;;;7.82;7.03;;;20.50;99.90;;;;;;5074082;28;20036;-57
2022/07/13 05:37:38;;;;;;;7.93;7.18;;;20.40;99.90;;;;;;5074211;28;20052;-58
2022/07/13 05:40:05;;;;;;;8.88;7.13;;;20.40;99.90;;;;;;5074182;28;20527;-57
2022/07/13 05:42:30;;;;;;;7.88;7.18;;;20.40;99.90;;;;;;5073712;28;20033;-57
2022/07/13 05:44:56;;;;;;;8.02;7.22;;;20.40;99.90;;;;;;5072828;28;20114;-56
2022/07/13 05:47:22;;;;;;;8.25;7.03;;;20.40;99.90;;;;;;5073616;28;20040;-57
2022/07/13 05:49:48;;;;;;;7.93;7.18;;;20.50;99.90;;;;;;5073929;28;20044;-58
2022/07/13 05:52:13;;;;;;;10.30;7.30;;;20.50;99.90;;;;;;5072954;28;20049;-58
2022/07/13 05:54:39;;;;;;;9.50;7.75;;;20.50;99.90;;;;;;5073527;28;20079;-58
2022/07/13 05:57:05;;;;;;;8.88;7.80;;;20.60;99.90;;;;;;5073534;28;20043;-57
2022/07/13 05:59:32;;;;;;;8.80;7.97;;;20.60;99.90;;;;;;5073457;28;20032;-58
2022/07/13 06:02:01;;;;;;;8.30;7.50;;;20.60;99.90;;;;;;5073302;28;20051;-58
2022/07/13 06:04:27;;;;;;;9.48;8.43;;;20.60;99.90;;;;;;5073306;28;20483;-58
2022/07/13 06:06:52;;;;;;;8.32;7.53;;;20.60;99.90;;;;;;5073468;28;20028;-56
2022/07/13 06:09:18;;;;;;;9.02;8.20;;;20.60;99.90;;;;;;5073234;28;20170;-57
2022/07/13 06:11:46;;;;;;;9.63;8.45;;;20.60;99.90;;;;;;5073257;28;20052;-57
2022/07/13 06:14:12;;;;;;;10.30;8.88;;;20.60;99.90;;;;;;5073066;28;20090;-57
2022/07/13 06:16:37;;;;;;;9.10;8.27;;;20.60;99.90;;;;;;5072923;28;20048;-58
2022/07/13 06:19:03;;;;;;;11.07;8.93;;;20.60;99.90;;;;;;5072945;28;20383;-57
2022/07/13 06:21:29;;;;;;;9.45;8.57;;;20.70;99.90;;;;;;5072941;28;20036;-57
2022/07/13 06:23:55;;;;;;;9.70;8.75;;;20.70;99.90;;;;;;5073174;28;20052;-56
2022/07/13 06:26:20;;;;;;;9.15;8.25;;;20.70;99.90;;;;;;5072991;28;20032;-56
2022/07/13 06:28:46;;;;;;;9.43;8.30;;;20.80;99.90;;;;;;5072739;28;20068;-58
2022/07/13 06:31:13;;;;;;;10.07;9.10;;;20.90;99.90;;;;;;5072860;28;20115;-56
2022/07/13 06:33:38;;;;;;;10.45;8.85;;;20.90;99.90;;;;;;5073056;28;20052;-56
2022/07/13 06:36:04;;;;;;;10.52;9.43;;;21.00;99.90;;;;;;5073190;28;20055;-56
2022/07/13 06:38:30;;;;;;;9.80;8.80;;;21.10;99.90;;;;;;5072949;28;20040;-56
2022/07/13 06:40:55;;;;;;;7.78;6.97;;;21.20;99.90;;;;;;5072624;28;20044;-56
2022/07/13 06:43:21;;;;;;;13.15;9.60;;;21.20;99.90;;;;;;5072534;28;20028;-55
2022/07/13 06:45:47;;;;;;;12.30;8.20;;;21.40;99.90;;;;;;5072392;28;20107;-56
2022/07/13 06:48:13;;;;;;;14.13;8.65;;;21.50;99.90;;;;;;5071271;28;20044;-56
2022/07/13 06:50:38;;;;;;;9.65;8.68;;;21.70;99.90;;;;;;5071242;28;20072;-56
2022/07/13 06:53:04;;;;;;;12.88;9.10;;;21.90;99.90;;;;;;5072521;28;20044;-57
2022/07/13 06:55:30;;;;;;;11.77;9.35;;;22.00;99.90;;;;;;5072645;28;20042;-57
2022/07/13 06:57:55;;;;;;;10.50;8.50;;;22.10;99.90;;;;;;5072424;28;20040;-56
2022/07/13 07:00:21;;;;;;;11.40;9.30;;;22.30;99.90;;;;;;5072180;28;20457;-55
2022/07/13 07:02:47;;;;;;;13.00;8.50;;;22.40;99.90;;;;;;5072276;28;20078;-56
2022/07/13 07:05:13;;;;;;;12.50;7.57;;;22.60;99.90;;;;;;5071818;28;20079;-56
2022/07/13 07:07:40;;;;;;;9.13;8.10;;;22.70;99.90;;;;;;5072222;28;20453;-57
2022/07/13 07:10:07;;;;;;;8.48;7.20;;;22.90;99.90;;;;;;5072117;28;20475;-56
2022/07/13 07:12:34;;;;;;;12.50;9.30;;;22.90;99.90;;;;;;5072055;28;20093;-57
2022/07/13 07:14:59;;;;;;;12.13;8.13;;;23.00;99.90;;;;;;5071987;28;20453;-57
2022/07/13 07:17:25;;;;;;;10.20;8.95;;;23.10;99.90;;;;;;5071828;28;20036;-57
2022/07/13 07:19:56;;;;;;;13.45;9.23;;;23.10;99.90;;;;;;5072408;28;20068;-57
2022/07/13 07:22:23;;;;;;;12.43;8.93;;;23.20;99.90;;;;;;5071849;28;20063;-57
2022/07/13 07:24:50;;;;;;;12.07;8.70;;;23.30;99.90;;;;;;5072008;28;20087;-57
2022/07/13 07:27:16;;;;;;;10.18;7.68;;;23.40;99.90;;;;;;5071870;28;20483;-58
2022/07/13 07:29:42;;;;;;;11.35;9.65;;;23.50;99.90;;;;;;5071820;28;20047;-56
2022/07/13 07:32:08;;;;;;;12.73;8.88;;;23.70;99.90;;;;;;5072172;28;20036;-57
2022/07/13 07:34:34;;;;;;;10.70;8.13;;;23.80;99.90;;;;;;5072067;28;20101;-57
2022/07/13 07:37:00;;;;;;;9.48;7.78;;;24.00;99.90;;;;;;5071026;28;20044;-56
2022/07/13 07:39:26;;;;;;;9.25;7.32;;;24.30;99.90;;;;;;5071944;28;20040;-57
2022/07/13 07:41:52;;;;;;;9.43;8.02;;;24.30;99.90;;;;;;5071913;28;20503;-57
2022/07/13 07:44:18;;;;;;;15.77;9.63;;;24.50;99.90;;;;;;5071705;28;20036;-57
2022/07/13 07:46:44;;;;;;;13.70;10.20;;;24.50;99.90;;;;;;5072008;28;20047;-58
2022/07/13 07:49:10;;;;;;;17.65;10.35;;;24.60;99.90;;;;;;5071779;28;20092;-57
2022/07/13 07:51:36;;;;;;;16.77;11.65;;;24.70;99.90;;;;;;5071728;28;20433;-57
2022/07/13 07:54:01;;;;;;;16.50;12.85;;;24.70;99.90;;;;;;5071549;28;20436;-57
2022/07/13 07:56:27;;;;;;;18.13;10.15;;;24.80;99.90;;;;;;5071544;28;20036;-58
2022/07/13 07:58:53;;;;;;;13.85;9.35;;;24.80;99.90;;;;;;5071932;28;20390;-57
2022/07/13 08:01:19;;;;;;;15.80;11.48;;;25.30;99.90;;;;;;5071578;28;20404;-57
2022/07/13 08:03:44;;;;;;;14.90;10.38;;;25.40;99.90;;;;;;5071720;28;20032;-58
2022/07/13 08:06:11;;;;;;;12.93;10.63;;;25.40;99.90;;;;;;5071622;28;20138;-57
2022/07/13 08:08:37;;;;;;;14.60;9.60;;;25.90;99.90;;;;;;5070439;28;20047;-56
2022/07/13 08:11:03;;;;;;;13.13;8.73;;;26.30;99.90;;;;;;5071649;28;20065;-55
2022/07/13 08:13:30;;;;;;;9.10;6.95;;;26.60;99.90;;;;;;5071460;28;20041;-56
2022/07/13 08:15:56;;;;;;;12.52;7.57;;;26.70;99.90;;;;;;5074147;28;20051;-56
2022/07/13 08:18:21;;;;;;;12.25;8.73;;;26.80;99.90;;;;;;5075438;28;20112;-56
2022/07/13 08:20:47;;;;;;;10.05;8.48;;;26.90;99.90;;;;;;5075524;28;20186;-57
2022/07/13 08:25:57;;;;;;;10.95;8.95;;;26.70;99.90;;;;;;5075294;28;20098;-58
2022/07/13 08:28:23;;;;;;;10.13;7.03;;;27.00;99.90;;;;;;5075210;28;20040;-57
2022/07/13 08:30:49;;;;;;;9.48;5.70;;;26.80;99.90;;;;;;5075293;28;20028;-58
2022/07/13 08:33:14;;;;;;;10.02;6.68;;;27.10;99.90;;;;;;5075094;28;20121;-58
2022/07/13 08:38:38;;;;;;;12.23;9.02;;;27.00;99.90;;;;;;5075000;28;20077;-58
2022/07/13 08:41:04;;;;;;;11.85;7.18;;;27.30;99.90;;;;;;5073955;28;20123;-58
2022/07/13 08:43:32;;;;;;;15.82;6.47;;;27.30;99.90;;;;;;5074981;28;20403;-58
2022/07/13 08:45:58;;;;;;;7.35;4.85;;;27.90;99.90;;;;;;5075003;28;20170;-57
2022/07/13 08:48:31;;;;;;;8.52;4.45;;;28.20;99.90;;;;;;5074952;28;20048;-57
2022/07/13 08:50:58;;;;;;;7.05;4.93;;;28.50;99.90;;;;;;5074911;28;20044;-57
2022/07/13 08:53:24;;;;;;;8.68;5.78;;;28.70;99.90;;;;;;5073706;28;20080;-57
2022/07/13 08:55:50;;;;;;;6.18;4.47;;;28.40;99.90;;;;;;5074780;28;20040;-57
2022/07/13 08:58:17;;;;;;;6.95;4.28;;;28.10;99.90;;;;;;5073036;28;20063;-57
2022/07/13 09:00:43;;;;;;;9.23;5.45;;;27.90;99.90;;;;;;5074702;28;20040;-57
2022/07/13 09:03:09;;;;;;;9.93;3.97;;;28.10;99.90;;;;;;5074119;28;20517;-57
2022/07/13 09:05:35;;;;;;;5.60;3.60;;;28.00;99.90;;;;;;5073492;28;20045;-57
2022/07/13 09:08:09;;;;;;;7.85;4.43;;;28.20;99.90;;;;;;5074806;28;20044;-57
2022/07/13 09:10:56;;;;;;;5.22;3.40;;;28.40;99.90;;;;;;5073491;28;20040;-57
2022/07/13 09:13:42;;;;;;;4.68;3.72;;;28.70;99.90;;;;;;5074419;28;20394;-57
2022/07/13 09:16:24;;;;;;;4.50;3.50;;;29.10;99.90;;;;;;5074405;28;20036;-57
2022/07/13 09:18:58;;;;;;;3.42;3.13;;;28.80;99.90;;;;;;5074654;28;20109;-56
2022/07/13 09:21:25;;;;;;;7.68;3.28;;;28.90;99.90;;;;;;5074218;28;20040;-57
2022/07/13 09:23:56;;;;;;;6.13;3.05;;;29.20;99.90;;;;;;5074363;28;20044;-57
2022/07/13 09:26:22;;;;;;;4.55;2.80;;;29.40;99.90;;;;;;5072337;28;20041;-58
2022/07/13 09:28:49;;;;;;;3.75;2.60;;;29.20;99.90;;;;;;5074266;28;20039;-56
2022/07/13 09:31:16;;;;;;;4.13;3.10;;;29.50;99.90;;;;;;5074119;28;20426;-57
2022/07/13 09:33:45;;;;;;;5.27;2.90;;;29.40;99.90;;;;;;5073906;28;20498;-56
2022/07/13 09:36:13;;;;;;;4.22;3.05;;;28.90;99.90;;;;;;5073878;28;20048;-57
2022/07/13 09:38:42;;;;;;;5.70;3.55;;;29.10;99.90;;;;;;5072764;28;20543;-57
2022/07/13 09:41:18;;;;;;;3.58;2.25;;;29.20;99.90;;;;;;5074034;28;20075;-57
2022/07/13 09:46:57;;;;;;;4.68;2.13;;;29.50;99.90;;;;;;5073734;28;20041;-57
2022/07/13 09:49:32;;;;;;;3.55;2.00;;;29.70;99.90;;;;;;5073888;28;20036;-57
2022/07/13 09:51:58;;;;;;;2.67;1.58;;;29.70;99.90;;;;;;5073470;28;20089;-55
2022/07/13 09:54:29;;;;;;;4.38;2.05;;;29.80;99.90;;;;;;5073639;28;20041;-56
2022/07/13 09:56:59;;;;;;;5.93;2.42;;;29.70;99.90;;;;;;5073598;28;20040;-57
2022/07/13 09:59:25;;;;;;;5.20;2.60;;;30.00;99.90;;;;;;5073379;28;20107;-57
2022/07/13 10:01:52;;;;;;;5.20;3.47;;;30.00;99.90;;;;;;5072532;28;20033;-56
2022/07/13 10:04:19;;;;;;;9.05;3.40;;;29.60;99.90;;;;;;5073370;28;20116;-56
2022/07/13 10:06:45;;;;;;;4.45;2.50;;;29.70;99.90;;;;;;5073387;28;20036;-57
2022/07/13 10:09:10;;;;;;;6.72;2.30;;;29.50;99.90;;;;;;5072302;28;20036;-56
2022/07/13 10:11:36;;;;;;;5.15;2.20;;;29.40;99.90;;;;;;5072190;28;20502;-57
2022/07/13 10:14:04;;;;;;;3.45;1.80;;;29.20;99.90;;;;;;5073279;28;20153;-58
2022/07/13 10:16:31;;;;;;;4.18;1.70;;;29.60;99.90;;;;;;5073369;28;20043;-58
2022/07/13 10:19:03;;;;;;;4.95;1.80;;;29.70;99.90;;;;;;5073259;28;20033;-57
2022/07/13 10:21:54;;;;;;;3.53;1.60;;;29.80;99.90;;;;;;5073074;28;20893;-57
2022/07/13 10:24:20;;;;;;;5.25;1.70;;;29.80;99.90;;;;;;5073039;28;20097;-57
2022/07/13 10:26:47;;;;;;;2.40;1.50;;;30.00;99.90;;;;;;5072791;28;20479;-57
2022/07/13 10:29:15;;;;;;;3.78;1.70;;;30.00;99.90;;;;;;5072989;28;20044;-56
2022/07/13 10:31:42;;;;;;;3.08;1.48;;;30.30;99.90;;;;;;5072998;28;20063;-57
2022/07/13 10:34:10;;;;;;;2.88;1.80;;;30.10;99.90;;;;;;5071404;28;20040;-57
2022/07/13 10:37:00;;;;;;;3.10;1.23;;;30.30;99.90;;;;;;5072734;28;20399;-57
2022/07/13 10:39:27;;;;;;;1.85;1.33;;;30.40;99.60;;;;;;5071918;28;20036;-57
2022/07/13 10:42:07;;;;;;;2.10;1.25;;;30.20;98.90;;;;;;5071344;28;20114;-58
2022/07/13 10:44:38;;;;;;;3.10;1.50;;;30.00;99.60;;;;;;5072405;28;20486;-58
2022/07/13 10:47:11;;;;;;;3.95;1.60;;;29.90;99.60;;;;;;5071497;28;20051;-58
2022/07/13 10:49:50;;;;;;;2.72;1.50;;;29.40;99.90;;;;;;5072456;28;20487;-57
2022/07/13 10:52:21;;;;;;;2.40;1.63;;;29.60;99.50;;;;;;5073157;28;20045;-57
2022/07/13 10:55:11;;;;;;;1.73;1.40;;;29.80;99.20;;;;;;5072571;28;20048;-56
2022/07/13 10:57:44;;;;;;;2.55;1.40;;;30.00;99.80;;;;;;5071446;28;20049;-57
2022/07/13 11:00:22;;;;;;;3.28;1.23;;;30.30;99.80;;;;;;5072182;28;20446;-57
2022/07/13 11:02:51;;;;;;;6.82;1.70;;;29.90;99.20;;;;;;5071424;28;20084;-57
2022/07/13 11:05:19;;;;;;;6.05;1.42;;;30.10;99.70;;;;;;5072309;28;20036;-57
2022/07/13 11:07:47;;;;;;;4.38;1.70;;;29.70;98.50;;;;;;5071998;28;20048;-57
2022/07/13 11:10:22;;;;;;;2.83;1.48;;;29.40;98.90;;;;;;5072034;28;20051;-57
2022/07/13 11:13:23;;;;;;;2.80;1.20;;;29.40;98.90;;;;;;5072306;28;20048;-57
2022/07/13 11:15:53;;;;;;;3.15;1.27;;;29.60;99.90;;;;;;5072065;28;20083;-57
2022/07/13 11:18:22;;;;;;;1.98;1.60;;;29.80;99.40;;;;;;5070633;28;20044;-57
2022/07/13 11:21:03;;;;;;;3.10;1.13;;;29.90;99.10;;;;;;5070926;28;20044;-57
2022/07/13 11:26:51;;;;;;;3.03;1.08;;;29.40;99.20;;;;;;5071908;28;20044;-57
2022/07/13 11:29:38;;;;;;;3.42;1.38;;;29.50;99.70;;;;;;5071933;28;20044;-57
2022/07/13 11:32:05;;;;;;;2.83;1.73;;;29.30;99.90;;;;;;5071908;28;20040;-58
2022/07/13 11:34:35;;;;;;;7.88;2.38;;;29.00;99.90;;;;;;5070831;28;20068;-57
2022/07/13 11:37:01;;;;;;;2.37;1.80;;;29.20;99.90;;;;;;5072026;28;20087;-57
2022/07/13 11:39:29;;;;;;;3.40;2.00;;;28.90;99.90;;;;;;5071776;28;20068;-56
2022/07/13 11:41:56;;;;;;;2.40;1.60;;;29.10;99.90;;;;;;5071698;28;20494;-57
2022/07/13 11:44:24;;;;;;;3.17;1.38;;;30.60;99.90;;;;;;5071486;28;20033;-57
2022/07/13 11:46:50;;;;;;;;;;;30.80;99.90;;;;;;5072079;28;20036;-57
2022/07/13 11:49:17;;;;;;;2.25;1.08;;;30.20;98.00;;;;;;5071715;28;20385;-57
2022/07/13 11:51:44;;;;;;;4.80;1.75;;;30.20;99.90;;;;;;5075743;28;20044;-56
2022/07/13 11:54:12;;;;;;;3.20;1.48;;;29.90;99.90;;;;;;5075834;28;20478;-57
2022/07/13 11:56:57;;;;;;;3.33;1.50;;;29.60;99.90;;;;;;5076087;28;20118;-58
2022/07/13 11:59:40;;;;;;;5.75;1.70;;;30.40;99.90;;;;;;5075899;28;20059;-57
2022/07/13 12:02:11;;;;;;;2.55;1.83;;;31.00;99.90;;;;;;5075827;28;20157;-57
2022/07/13 12:04:44;;;;;;;3.63;2.33;;;31.20;99.90;;;;;;5075716;28;20483;-59
2022/07/13 12:07:13;;;;;;;4.38;2.00;;;30.90;99.90;;;;;;5075922;28;20056;-58
2022/07/13 12:09:51;;;;;;;2.53;1.50;;;30.70;99.90;;;;;;5074701;28;20495;-58
2022/07/13 12:12:25;;;;;;;5.75;1.95;;;31.30;99.90;;;;;;5074444;28;20036;-56
2022/07/13 12:14:52;;;;;;;8.27;2.10;;;31.50;99.90;;;;;;5075349;28;20087;-58
2022/07/13 12:17:18;;;;;;;4.28;2.08;;;31.30;99.90;;;;;;5075597;28;20067;-58
2022/07/13 12:19:44;;;;;;;5.88;1.85;;;30.70;99.90;;;;;;5073669;28;20048;-58
2022/07/13 12:22:09;;;;;;;5.20;1.80;;;31.10;99.90;;;;;;5075251;28;20118;-58
2022/07/13 12:24:36;;;;;;;3.88;1.83;;;31.00;99.90;;;;;;5075566;28;20085;-58
2022/07/13 12:27:02;;;;;;;4.65;1.52;;;31.30;99.90;;;;;;5075204;28;20044;-56
2022/07/13 12:29:33;;;;;;;5.15;1.90;;;31.50;99.90;;;;;;5075091;28;20041;-57
2022/07/13 12:32:01;;;;;;;6.65;2.28;;;31.40;99.90;;;;;;5075057;28;20372;-56
2022/07/13 12:34:27;;;;;;;5.95;2.15;;;30.90;99.90;;;;;;5075427;28;20079;-57
2022/07/13 12:36:53;;;;;;;5.25;2.10;;;31.20;99.90;;;;;;5075133;28;20036;-57
2022/07/13 12:39:56;;;;;;;4.80;2.10;;;30.90;99.90;;;;;;5075150;28;20093;-57
2022/07/13 12:42:21;;;;;;;2.92;2.05;;;31.20;99.90;;;;;;5052528;28;20442;-57
2022/07/13 12:44:47;;;;;;;6.45;2.10;;;31.40;99.90;;;;;;5052622;28;20041;-57
2022/07/13 12:47:13;;;;;;;2.80;1.80;;;31.50;99.90;;;;;;5052600;28;20575;-58
2022/07/13 12:49:39;;;;;;;5.70;2.22;;;31.40;99.90;;;;;;5052668;28;20439;-58
2022/07/13 12:52:10;;;;;;;5.25;1.80;;;31.50;99.90;;;;;;5035280;28;20056;-57
2022/07/13 12:54:45;;;;;;;8.30;2.10;;;31.50;99.90;;;;;;5052549;28;20102;-57
2022/07/13 12:57:13;;;;;;;5.75;2.35;;;31.40;99.90;;;;;;5052317;28;20037;-56
2022/07/13 12:59:38;;;;;;;;;;;31.40;99.90;;;;;;5052875;28;20049;-57